Latest METAR Data

Below are the latest METARs ("Meteorological Services to Airmen Reports"), for RNAS Culdrose and Newquay Airport.

EGDR - RNAS Culdrose
Distance from station: SW 6mi, 9km
Updated: Fri, 13-Dec-2019 7:50pm GMT
Mostly Cloudy
Mostly Cloudy
 Wind from W
Wind: W 33 mph , 54 km/h, Gust: 49 mph , 80 km/h
Temperature: 54°F , 12°C
Dew Point: 48°F , 9°C
Humidity: 82%
Barometer: 29.06 inHg , 984 hPa
Clouds: Mostly Cloudy
Visibility: 6 miles , 9 km
Cloud details: Partly Cloudy 1900 ft
Mostly Cloudy 3900 ft
2019/12/13 19:50 EGDR 131950Z AUTO 27029G43KT 9000 // SCT019/// BKN039/// 12/09 Q0984
EGHQ - Newquay Airport
Distance from station: NE 21mi, 34km
Updated: Fri, 13-Dec-2019 8:20pm GMT
Mostly Cloudy
Mostly Cloudy
 Wind from W
Wind: W 33 mph , 54 km/h
Temperature: 52°F , 11°C
Dew Point: 46°F , 8°C
Humidity: 82%
Barometer: 29 inHg , 982 hPa
Clouds: Mostly Cloudy
Visibility: 6 miles , 10 km
Cloud details: Mostly Cloudy 2400 ft
2019/12/13 20:20 EGHQ 132020Z 26029KT 9999 BKN024 11/08 Q0982
 
EGTE - Exeter Airport
Distance from station: ENE 88mi, 141km
Updated: Fri, 13-Dec-2019 8:20pm GMT
Mostly Cloudy
Mostly Cloudy
 Wind from WSW
Wind: WSW 12 mph , 19 km/h
Temperature: 52°F , 11°C
Dew Point: 48°F , 9°C
Humidity: 88%
Barometer: 28.94 inHg , 980 hPa
Clouds: Mostly Cloudy
Visibility: 6 miles , 10 km
Cloud details: Few Clouds 500 ft
Mostly Cloudy 2500 ft
2019/12/13 20:20 EGTE 132020Z 24010KT 200V290 9999 FEW005 BKN025 11/09 Q0980
EGHE - St Marys, IOS
Distance from station: W 51mi, 82km
Updated: Fri, 13-Dec-2019 4:20pm GMT
NOT Current
Drizzle, Mostly cloudy
Drizzle, Mostly cloudy
 Wind from SW
Wind: SW 23 mph , 37 km/h
Temperature: 52°F , 11°C
Dew Point: 50°F , 10°C
Humidity: 94%
Barometer: 29.15 inHg , 987 hPa
Summary: Drizzle
Clouds: Mostly Cloudy
Visibility: 1 mile , 1 km
Cloud details: Mostly Cloudy 300 ft
Mostly Cloudy 1000 ft
2019/12/13 16:20 EGHE 131620Z 22020KT 1400 DZ BKN003 BKN010 11/10 Q0987

Metar display script from Saratoga-Weather.org

 

 

UK - WEATHER STATION TOPSITES - UK World Weather Websites

Copyright © Carnkie Weather 2009 - 2019.